Flight Track Log - Related Links

Times and Time Zones

All times are in EDT time to prevent confusion due to time zone crossing. See the EJA361 flight status page for this flight to view local times or setup timezone preferences in your user account.

Time Position Orientation Groundspeed Altitude Reporting Facility
EDT Latitude Longitude Course Direction KTS MPH feet Rate Location/Type
Wed 02:09:07 PM 40.7833 -73.8667 252° West 187 215 4,000  Level New York TRACON
Wed 02:11:07 PM 40.7500 -74.0000 252° West 199 229 4,000  Level New York TRACON
Wed 02:12:07 PM 40.7333 -74.0667 252° West 198 228 4,000  Level New York TRACON
Wed 02:13:07 PM 40.6833 -74.0833 194° South 203 234 4,000 -333 Level New York TRACON
Wed 02:15:07 PM 40.6000 -74.0333 156° South 185 213 3,000 -500 Descending New York TRACON
Wed 02:16:07 PM 40.6333 -73.9833 49° Northeast 176 203 2,500 -250 Descending New York TRACON
Wed 02:17:07 PM 40.6667 -73.9500 37° Northeast 178 205 2,500  Level New York TRACON
Wed 02:18:07 PM 40.7167 -73.9333 14° North 174 200 2,500 -600 Level New York TRACON
Wed 02:19:07 PM 40.7333 -73.8833 66° East 162 186 1,300 -900 Descending New York TRACON
Wed 02:20:07 PM 40.7500 -73.8333 66° East 138 159 700 -600 Descending New York TRACON
Wed 02:22:00 PM 40.9079 -73.7003 27° Northeast  Level FlightAware Approximate
Wed 02:29:00 PM 41.3734 -73.0724 82° East  Level FlightAware Approximate
Wed 02:30:00 PM 41.3876 -72.9428 82° East  Level FlightAware Approximate
Wed 02:31:00 PM 41.4017 -72.8131 82° East  Level FlightAware Approximate
Wed 02:32:00 PM 41.4156 -72.6833 82° East  Level FlightAware Approximate
Wed 02:33:00 PM 41.4294 -72.5535 82° East  Level FlightAware Approximate
Wed 02:34:00 PM 41.4432 -72.4237 82° East  Level FlightAware Approximate
Wed 02:35:00 PM 41.4569 -72.2938 82° East  Level FlightAware Approximate
Wed 02:36:00 PM 41.4792 -72.1675 63° Northeast  Level FlightAware Approximate
Wed 02:37:00 PM 41.5241 -72.0508 63° Northeast  Level FlightAware Approximate
Wed 02:38:00 PM 41.5669 -71.9326 66° East  Level FlightAware Approximate
Wed 02:39:00 PM 41.6061 -71.8121 69° East  Level FlightAware Approximate
Wed 02:40:00 PM 41.6412 -71.6892 69° East  Level FlightAware Approximate
Wed 02:41:00 PM 41.6759 -71.5661 70° East  Level FlightAware Approximate
Wed 02:42:00 PM 41.7097 -71.4424 70° East  Level FlightAware Approximate
Wed 02:43:00 PM 41.7573 -71.3280 66° East  Level FlightAware Approximate
Wed 02:44:00 PM 41.8006 -71.2097 63° Northeast  Level FlightAware Approximate
Wed 02:45:00 PM 41.8621 -71.1126 14° North  Level FlightAware Approximate
Wed 02:46:00 PM 41.9590 -71.0970 14° North  Level FlightAware Approximate
Wed 02:47:00 PM 42.0544 -71.0652 14° North  Level FlightAware Approximate
Wed 02:48:00 PM 42.1508 -71.0415 10° North  Level FlightAware Approximate
Wed 02:49:00 PM 42.2477 -71.0214 10° North  Level FlightAware Approximate
Wed 02:50:00 PM 42.3446 -71.0000 North  Level FlightAware Approximate
Wed 02:51:00 PM 42.3500 -71.0000 North  Level FlightAware Approximate
Wed 02:52:00 PM 42.3630 -71.0064 North  Level Estimated
Wed 02:53:00 PM 42.3630 -71.0064 North  Level Estimated
Wed 02:54:00 PM 42.3630 -71.0064 North  Level Estimated
Wed 02:55:00 PM 42.3630 -71.0064 North  Level Estimated

Login

Don't have an account? Register now (free) for customized features, flight alerts, and more!